台湾桃園国際空港 の過去48時間の天気

台湾桃園国際空港 (Chiang Kai Shek)

現在時刻: 9/23 02:15 CST (9/22 18:15 UTC) 以下の時間は現地時間です。

過去48時間のMETAR気象情報
時間 風向 風速(m/s) 視程 気温(℃) 湿度(%) 気圧(hPa) 天気現象
23 01:30 東北東 5 10km以上 25 78 1010
23 01:00 東北東 5 10km以上 25 78 1011
23 00:30 北東 4 10km以上 25 74 1011
23 00:00 東北東 5 10km以上 26 70 1011
22 23:30 東北東 5 10km以上 25 78 1011
22 23:00 東北東 4 10km以上 25 78 1011
22 22:30 東北東 4 10km以上 25 78 1011
22 22:00 東北東 5 10km以上 26 74 1011
22 21:30 東北東 6 10km以上 26 74 1011
22 21:00 北東 4 10km以上 26 74 1011
22 20:30 東北東 5 10km以上 26 74 1011
22 20:00 東北東 5 10km以上 26 70 1011
22 19:30 東北東 5 10km以上 26 74 1010
22 19:00 北東 6 10km以上 26 74 1010
22 18:30 北東 7 10km以上 26 74 1010
22 18:00 北東 9 10km以上 26 74 1010
22 17:30 北東 9 10km以上 27 70 1009
22 17:00 北北東 9 10km以上 27 70 1009
22 16:30 北北東 9 10km以上 28 66 1009
22 16:00 北北東 8 10km以上 29 66 1009
22 15:30 北北東 9 10km以上 29 66 1009
22 15:00 北東 9 10km以上 29 66 1009
22 14:30 北北東 10 10km以上 30 62 1009
22 14:00 北北東 9 10km以上 30 66 1010
22 13:30 北北東 9 10km以上 30 66 1010
22 13:00 北北東 9 10km以上 31 62 1010
22 12:30 北北東 8 10km以上 30 66 1010
22 12:00 北北東 8 10km以上 30 66 1011
22 11:30 北北東 7 10km以上 31 59 1011
22 11:00 北北東 7 10km以上 31 59 1011
22 10:30 北北東 7 10km以上 30 62 1011
22 10:00 北北東 7 10km以上 31 59 1012
22 09:30 北北東 7 10km以上 30 59 1012
22 09:00 東北東 6 10km以上 30 59 1012
22 08:30 北東 6 10km以上 29 62 1012
22 08:00 東北東 6 10km以上 28 70 1012
22 07:30 東北東 4 10km以上 28 70 1012
22 07:00 東北東 4 10km以上 27 70 1011
22 06:30 東北東 4 10km以上 26 74 1011
22 06:00 東北東 4 10km以上 25 78 1011
22 05:30 東北東 3 10km以上 25 74 1011
22 05:00 3 10km以上 24 83 1011
22 04:30 東北東 4 10km以上 25 74 1011
22 04:00 東北東 3 10km以上 24 83 1011
22 03:30 東北東 3 10km以上 25 74 1011
22 03:00 東北東 4 10km以上 25 78 1011
22 02:30 東北東 4 10km以上 25 78 1011
22 02:00 東北東 4 10km以上 25 78 1011
22 01:30 東北東 4 10km以上 25 78 1011
22 01:00 北東 3 10km以上 24 83 1011
22 00:30 東北東 3 10km以上 25 78 1011
22 00:00 東北東 4 10km以上 25 78 1012
21 23:30 東北東 4 10km以上 26 74 1012
21 23:00 東北東 5 10km以上 26 74 1012
21 22:30 北東 6 10km以上 26 74 1012
21 22:00 北東 6 10km以上 26 74 1012
21 21:30 北東 6 10km以上 26 74 1012
21 21:00 北東 8 10km以上 27 70 1012
21 20:30 北東 7 10km以上 26 79 1012
21 20:00 北東 7 10km以上 26 79 1012
21 19:30 北東 7 10km以上 27 74 1011
21 19:00 東北東 8 10km以上 27 74 1011
21 18:30 北東 7 10km以上 27 74 1011
21 18:00 北東 8 10km以上 27 74 1011
21 17:30 北東 7 10km以上 28 70 1011
21 17:00 北北東 9 10km以上 28 70 1011
21 16:30 北北東 9 10km以上 29 70 1010
21 16:00 北東 10 10km以上 29 70 1010
21 15:30 北北東 10 10km以上 30 66 1010
21 15:00 北北東 8 10km以上 30 62 1010
21 14:30 北東 9 10km以上 29 70 1010
21 14:00 北北東 9 10km以上 30 66 1010
21 13:30 北東 9 10km以上 29 70 1011
21 13:00 北東 10 10km以上 29 74 1011
21 12:30 北北東 9 10km以上 31 66 1011
21 12:00 北東 8 10km以上 30 70 1012
21 11:30 北東 8 10km以上 29 70 1012
21 11:00 東北東 8 10km以上 29 74 1012
21 10:30 北東 7 10km以上 28 79 1012
21 10:00 北東 8 10km以上 27 84 1013
21 09:30 北東 8 10km以上 27 84 1013
21 09:00 北北東 7 10km以上 26 94 1012
21 08:45 北北東 7 10km以上 26 89 1012
21 08:30 北北東 7 10km以上 27 89 1012 弱い雨
21 08:21 北北東 7 10km以上 27 89 1012 弱い雨
21 08:00 北東 6 10km以上 28 79 1012
21 07:30 北東 5 10km以上 27 84 1012
21 07:00 東北東 4 10km以上 27 84 1012
21 06:30 北東 5 10km以上 26 89 1012
21 06:00 北東 5 10km以上 26 89 1012
21 05:30 東北東 4 10km以上 26 84 1012
21 05:00 東北東 4 10km以上 27 79 1012
21 04:30 4 10km以上 27 79 1012
21 04:00 北東 4 10km以上 27 79 1012
21 03:30 北東 4 10km以上 26 84 1012
21 03:00 東北東 4 10km以上 27 79 1012
21 02:30 東北東 5 10km以上 27 84 1012
RCTP 221730Z 06009KT 9999 FEW020 SCT200 25/21 Q1010 NOSIG RMK A2985
RCTP 221700Z 06009KT 9999 FEW020 SCT200 25/21 Q1011 NOSIG RMK A2986
RCTP 221630Z 05008KT 9999 FEW020 SCT200 25/20 Q1011 NOSIG RMK A2986
RCTP 221600Z 06010KT 9999 FEW020 SCT200 26/20 Q1011 NOSIG RMK A2987
RCTP 221530Z 07009KT 9999 FEW020 SCT200 25/21 Q1011 NOSIG RMK A2988
RCTP 221500Z 07007KT 9999 FEW020 SCT200 25/21 Q1011 NOSIG RMK A2988
RCTP 221430Z 07007KT 9999 FEW020 SCT200 25/21 Q1011 NOSIG RMK A2988
RCTP 221400Z 07010KT 9999 FEW020 SCT200 26/21 Q1011 NOSIG RMK A2988
RCTP 221330Z 06011KT 9999 FEW020 SCT200 26/21 Q1011 NOSIG RMK A2988
RCTP 221300Z 05008KT 9999 FEW020 SCT200 26/21 Q1011 NOSIG RMK A2988
RCTP 221230Z 06009KT 9999 FEW020 SCT200 26/21 Q1011 NOSIG RMK A2986
RCTP 221200Z 06010KT 9999 FEW020 SCT200 26/20 Q1011 NOSIG RMK A2986
RCTP 221130Z 06009KT 9999 FEW020 SCT200 26/21 Q1010 NOSIG RMK A2985
RCTP 221100Z 05011KT 9999 FEW020 SCT200 26/21 Q1010 NOSIG RMK A2984
RCTP 221030Z 04014KT 9999 FEW020 SCT200 26/21 Q1010 NOSIG RMK A2983
RCTP 221000Z 04017KT 9999 FEW020 BKN200 26/21 Q1010 NOSIG RMK A2983
RCTP 220930Z 04017KT 9999 FEW020 BKN200 27/21 Q1009 NOSIG RMK A2982
RCTP 220900Z 03017KT 9999 FEW020 BKN200 27/21 Q1009 NOSIG RMK A2982
RCTP 220830Z 03018KT 9999 FEW020 BKN200 28/21 Q1009 NOSIG RMK A2982
RCTP 220800Z 03016KT 9999 FEW020 BKN200 29/22 Q1009 NOSIG RMK A2982
RCTP 220730Z 02017KT 9999 FEW020 BKN200 29/22 Q1009 NOSIG RMK A2981
RCTP 220700Z 04018KT 9999 FEW020 BKN200 29/22 Q1009 NOSIG RMK A2981
RCTP 220630Z 03019KT 9999 FEW020 BKN200 30/22 Q1009 NOSIG RMK A2982
RCTP 220600Z 03017KT 9999 FEW020 SCT180 30/23 Q1010 NOSIG RMK A2983
RCTP 220530Z 02017KT 9999 FEW020 SCT180 30/23 Q1010 NOSIG RMK A2984
RCTP 220500Z 02017KT 9999 FEW020 SCT180 31/23 Q1010 NOSIG RMK A2984
RCTP 220430Z 02016KT 9999 FEW020 SCT180 30/23 Q1010 NOSIG RMK A2985
RCTP 220400Z 02015KT 9999 FEW020 SCT180 30/23 Q1011 NOSIG RMK A2986
RCTP 220330Z 02014KT 9999 FEW020 SCT180 31/22 Q1011 NOSIG RMK A2986
RCTP 220300Z 02014KT 350V050 9999 FEW020 SCT180 31/22 Q1011 NOSIG RMK A2988
RCTP 220230Z 02014KT 360V060 9999 FEW020 SCT180 30/22 Q1011 NOSIG RMK A2988
RCTP 220200Z 03013KT 9999 FEW020 SCT180 31/22 Q1012 NOSIG RMK A2989
RCTP 220130Z 03013KT 9999 FEW020 SCT180 30/21 Q1012 NOSIG RMK A2989
RCTP 220100Z 06011KT 9999 FEW020 SCT180 30/21 Q1012 NOSIG RMK A2989
RCTP 220030Z 05011KT 9999 FEW020 SCT180 29/21 Q1012 NOSIG RMK A2989
RCTP 220000Z 06011KT 9999 FEW020 SCT180 28/22 Q1012 NOSIG RMK A2989
RCTP 212330Z 07008KT 9999 FEW020 28/22 Q1012 NOSIG RMK A2989
RCTP 212300Z 07007KT 9999 FEW020 27/21 Q1011 NOSIG RMK A2988
RCTP 212230Z 07008KT 9999 FEW020 SCT040 26/21 Q1011 NOSIG RMK A2988
RCTP 212200Z 07007KT 9999 FEW020 SCT040 25/21 Q1011 NOSIG RMK A2987
RCTP 212130Z 07006KT 9999 FEW020 BKN040 25/20 Q1011 NOSIG RMK A2986
RCTP 212100Z 08005KT 9999 FEW020 24/21 Q1011 NOSIG RMK A2986
RCTP 212030Z 07007KT 9999 FEW020 25/20 Q1011 NOSIG RMK A2986
RCTP 212000Z 06006KT 9999 FEW020 24/21 Q1011 NOSIG RMK A2986
RCTP 211930Z 07006KT 9999 FEW020 25/20 Q1011 NOSIG RMK A2986
RCTP 211900Z 06007KT 9999 FEW020 25/21 Q1011 NOSIG RMK A2986
RCTP 211830Z 07007KT 9999 FEW020 25/21 Q1011 NOSIG RMK A2986
RCTP 211800Z 06008KT 9999 FEW020 25/21 Q1011 NOSIG RMK A2986
RCTP 211730Z 07007KT 9999 FEW020 25/21 Q1011 NOSIG RMK A2987
RCTP 211700Z 04006KT 9999 FEW020 24/21 Q1011 NOSIG RMK A2988
RCTP 211630Z 07006KT 9999 FEW020 25/21 Q1011 NOSIG RMK A2988
RCTP 211600Z 07007KT 9999 FEW020 25/21 Q1012 NOSIG RMK A2989
RCTP 211530Z 06008KT 9999 FEW020 26/21 Q1012 NOSIG RMK A2989
RCTP 211500Z 06009KT 9999 FEW020 26/21 Q1012 NOSIG RMK A2989
RCTP 211430Z 05012KT 9999 FEW020 26/21 Q1012 NOSIG RMK A2991
RCTP 211400Z 05011KT 9999 FEW020 26/21 Q1012 NOSIG RMK A2990
RCTP 211330Z 05012KT 9999 FEW020 26/21 Q1012 NOSIG RMK A2991
RCTP 211300Z 04015KT 9999 FEW015 SCT080 27/21 Q1012 NOSIG RMK A2989
RCTP 211230Z 04014KT 9999 FEW015 SCT050 26/22 Q1012 NOSIG RMK A2989
RCTP 211200Z 04013KT 9999 FEW015 26/22 Q1012 NOSIG RMK A2989
RCTP 211130Z 05013KT 9999 FEW015 27/22 Q1011 NOSIG RMK A2988
RCTP 211100Z 06015KT 9999 FEW015 27/22 Q1011 NOSIG RMK A2986
RCTP 211030Z 04014KT 9999 FEW015 27/22 Q1011 NOSIG RMK A2986
RCTP 211000Z 04015KT 9999 FEW015 27/22 Q1011 NOSIG RMK A2986
RCTP 210930Z 04014KT 9999 FEW015 28/22 Q1011 NOSIG RMK A2986
RCTP 210900Z 03017KT 9999 FEW015 28/22 Q1011 NOSIG RMK A2986
RCTP 210830Z 03017KT 9999 FEW015 29/23 Q1010 NOSIG RMK A2985
RCTP 210800Z 04019KT 9999 FEW015 29/23 Q1010 NOSIG RMK A2985
RCTP 210730Z 03019KT 9999 FEW015 SCT035 30/23 Q1010 NOSIG RMK A2984
RCTP 210700Z 03016KT 9999 FEW015 SCT035 30/22 Q1010 NOSIG RMK A2984
RCTP 210630Z 04018KT 9999 FEW015 BKN035 29/23 Q1010 NOSIG RMK A2984
RCTP 210600Z 03018KT 9999 FEW015 SCT035 BKN050 30/23 Q1010 NOSIG RMK A2985
RCTP 210530Z 04018KT 9999 FEW015 SCT035 BKN060 29/23 Q1011 NOSIG RMK A2986
RCTP 210500Z 04020KT 9999 FEW015 SCT035 BKN060 29/24 Q1011 NOSIG RMK A2986
RCTP 210430Z 03018KT 9999 FEW015 SCT035 31/24 Q1011 NOSIG RMK A2986
RCTP 210400Z 04016KT 9999 FEW015 BKN035 30/24 Q1012 NOSIG RMK A2989
RCTP 210330Z 05016KT 9999 FEW015 BKN035 BKN080 29/23 Q1012 NOSIG RMK A2990
RCTP 210300Z 06015KT 9999 FEW015 BKN035 BKN080 29/24 Q1012 NOSIG RMK A2991
RCTP 210230Z 04014KT 9999 FEW015 BKN035 BKN080 28/24 Q1012 NOSIG RMK A2991
RCTP 210200Z 04015KT 9999 FEW015 BKN050 BKN080 27/24 Q1013 NOSIG RMK A2992
RCTP 210130Z 05016KT 9999 FEW012 BKN035 BKN060 27/24 Q1013 NOSIG RMK A2992
RCTP 210100Z 03013KT 9999 FEW012 BKN035 BKN060 26/25 Q1012 NOSIG RMK A2991
RCTP 210045Z 03014KT 9999 FEW012 BKN030 BKN050 26/24 Q1012 NOSIG RMK A2991
RCTP 210030Z 03013KT 9999 -RA FEW012 BKN030 BKN050 27/25 Q1012 NOSIG RMK A2991
RCTP 210021Z 03014KT 9999 -RA FEW012 BKN030 BKN050 27/25 Q1012 NOSIG RMK A2991
RCTP 210000Z 05012KT 9999 FEW018 BKN030 BKN060 28/24 Q1012 NOSIG RMK A2991
RCTP 202330Z 05010KT 9999 FEW018 SCT030 BKN060 27/24 Q1012 NOSIG RMK A2991
RCTP 202300Z 07008KT 9999 FEW018 SCT025 BKN050 27/24 Q1012 NOSIG RMK A2990
RCTP 202230Z 05010KT 9999 FEW018 SCT025 BKN050 26/24 Q1012 NOSIG RMK A2990
RCTP 202200Z 05009KT 9999 FEW018 SCT025 BKN050 26/24 Q1012 NOSIG RMK A2990
RCTP 202130Z 07007KT 9999 FEW018 SCT025 BKN050 26/23 Q1012 NOSIG RMK A2990
RCTP 202100Z 06007KT 9999 FEW018 SCT025 BKN050 27/23 Q1012 NOSIG RMK A2989
RCTP 202030Z 08007KT 9999 FEW018 SCT025 BKN050 27/23 Q1012 NOSIG RMK A2989
RCTP 202000Z 05008KT 9999 FEW018 SCT025 BKN050 27/23 Q1012 NOSIG RMK A2989
RCTP 201930Z 05008KT 9999 FEW018 SCT025 BKN050 26/23 Q1012 NOSIG RMK A2989
RCTP 201900Z 06008KT 9999 FEW018 SCT025 BKN050 27/23 Q1012 NOSIG RMK A2989
RCTP 201830Z 06010KT 9999 FEW018 SCT025 BKN050 27/24 Q1012 NOSIG RMK A2989